sensor_id;sensor_type;location;lat;lon;timestamp;P1;durP1;ratioP1;P2;durP2;ratioP2
4696;SDS011;2362;50.780;0.292;2023-10-13T00:01:56;45.42;;;6.80;;
4696;SDS011;2362;50.780;0.292;2023-10-13T00:04:26;50.33;;;7.18;;
4696;SDS011;2362;50.780;0.292;2023-10-13T00:06:57;45.30;;;6.80;;
4696;SDS011;2362;50.780;0.292;2023-10-13T00:09:24;53.10;;;6.80;;
4696;SDS011;2362;50.780;0.292;2023-10-13T00:11:53;53.22;;;8.93;;
4696;SDS011;2362;50.780;0.292;2023-10-13T00:14:20;77.35;;;8.73;;
4696;SDS011;2362;50.780;0.292;2023-10-13T00:16:46;56.10;;;8.40;;
4696;SDS011;2362;50.780;0.292;2023-10-13T00:19:27;61.58;;;6.97;;
4696;SDS011;2362;50.780;0.292;2023-10-13T00:22:24;44.92;;;6.00;;
4696;SDS011;2362;50.780;0.292;2023-10-13T00:24:49;29.85;;;5.53;;
4696;SDS011;2362;50.780;0.292;2023-10-13T00:27:19;38.92;;;6.10;;
4696;SDS011;2362;50.780;0.292;2023-10-13T00:29:59;22.40;;;4.93;;
4696;SDS011;2362;50.780;0.292;2023-10-13T00:32:48;30.95;;;6.60;;
4696;SDS011;2362;50.780;0.292;2023-10-13T00:35:25;25.85;;;5.32;;
4696;SDS011;2362;50.780;0.292;2023-10-13T00:38:00;41.22;;;6.78;;
4696;SDS011;2362;50.780;0.292;2023-10-13T00:40:29;40.47;;;8.00;;
4696;SDS011;2362;50.780;0.292;2023-10-13T00:42:56;42.65;;;7.88;;
4696;SDS011;2362;50.780;0.292;2023-10-13T00:45:52;33.80;;;6.57;;
4696;SDS011;2362;50.780;0.292;2023-10-13T00:48:27;46.45;;;6.95;;
4696;SDS011;2362;50.780;0.292;2023-10-13T00:50:59;48.58;;;8.52;;
4696;SDS011;2362;50.780;0.292;2023-10-13T00:53:28;54.08;;;8.38;;
4696;SDS011;2362;50.780;0.292;2023-10-13T00:55:58;45.97;;;7.95;;
4696;SDS011;2362;50.780;0.292;2023-10-13T00:58:33;50.40;;;9.75;;
4696;SDS011;2362;50.780;0.292;2023-10-13T01:01:00;52.50;;;11.88;;
4696;SDS011;2362;50.780;0.292;2023-10-13T01:03:52;62.28;;;11.15;;
4696;SDS011;2362;50.780;0.292;2023-10-13T01:06:20;55.35;;;11.07;;
4696;SDS011;2362;50.780;0.292;2023-10-13T01:11:46;50.85;;;11.98;;
4696;SDS011;2362;50.780;0.292;2023-10-13T01:14:17;68.00;;;11.73;;
4696;SDS011;2362;50.780;0.292;2023-10-13T01:16:46;52.10;;;11.63;;
4696;SDS011;2362;50.780;0.292;2023-10-13T01:19:17;69.90;;;12.32;;
4696;SDS011;2362;50.780;0.292;2023-10-13T01:21:45;73.43;;;12.23;;
4696;SDS011;2362;50.780;0.292;2023-10-13T01:24:14;59.67;;;12.65;;
4696;SDS011;2362;50.780;0.292;2023-10-13T01:26:42;73.47;;;12.27;;
4696;SDS011;2362;50.780;0.292;2023-10-13T01:29:08;61.85;;;12.60;;
4696;SDS011;2362;50.780;0.292;2023-10-13T01:31:41;61.35;;;12.57;;
4696;SDS011;2362;50.780;0.292;2023-10-13T01:34:13;45.97;;;11.38;;
4696;SDS011;2362;50.780;0.292;2023-10-13T01:36:45;61.78;;;11.13;;
4696;SDS011;2362;50.780;0.292;2023-10-13T01:39:11;65.35;;;13.30;;
4696;SDS011;2362;50.780;0.292;2023-10-13T01:41:41;54.25;;;11.75;;
4696;SDS011;2362;50.780;0.292;2023-10-13T01:44:08;53.95;;;11.52;;
4696;SDS011;2362;50.780;0.292;2023-10-13T01:46:36;58.10;;;12.38;;
4696;SDS011;2362;50.780;0.292;2023-10-13T01:49:07;68.75;;;12.52;;
4696;SDS011;2362;50.780;0.292;2023-10-13T01:51:33;48.08;;;11.68;;
4696;SDS011;2362;50.780;0.292;2023-10-13T01:53:59;55.38;;;11.77;;
4696;SDS011;2362;50.780;0.292;2023-10-13T01:56:28;49.17;;;11.90;;
4696;SDS011;2362;50.780;0.292;2023-10-13T01:58:56;42.08;;;11.18;;
4696;SDS011;2362;50.780;0.292;2023-10-13T02:01:22;55.67;;;10.60;;
4696;SDS011;2362;50.780;0.292;2023-10-13T02:03:57;42.45;;;9.85;;
4696;SDS011;2362;50.780;0.292;2023-10-13T02:06:34;52.33;;;10.98;;
4696;SDS011;2362;50.780;0.292;2023-10-13T02:09:08;48.60;;;10.90;;
4696;SDS011;2362;50.780;0.292;2023-10-13T02:11:50;55.42;;;11.07;;
4696;SDS011;2362;50.780;0.292;2023-10-13T02:14:22;49.67;;;10.07;;
4696;SDS011;2362;50.780;0.292;2023-10-13T02:16:49;62.75;;;12.45;;
4696;SDS011;2362;50.780;0.292;2023-10-13T02:19:15;76.00;;;12.10;;
4696;SDS011;2362;50.780;0.292;2023-10-13T02:21:44;64.68;;;12.95;;
4696;SDS011;2362;50.780;0.292;2023-10-13T02:24:11;62.67;;;10.90;;
4696;SDS011;2362;50.780;0.292;2023-10-13T02:26:43;60.25;;;11.05;;
4696;SDS011;2362;50.780;0.292;2023-10-13T02:29:09;67.15;;;12.48;;
4696;SDS011;2362;50.780;0.292;2023-10-13T02:31:40;60.28;;;11.93;;
4696;SDS011;2362;50.780;0.292;2023-10-13T02:34:07;51.78;;;11.15;;
4696;SDS011;2362;50.780;0.292;2023-10-13T02:36:36;59.47;;;11.18;;
4696;SDS011;2362;50.780;0.292;2023-10-13T02:39:12;55.40;;;14.07;;
4696;SDS011;2362;50.780;0.292;2023-10-13T02:41:39;71.68;;;11.95;;
4696;SDS011;2362;50.780;0.292;2023-10-13T02:44:06;58.83;;;12.88;;
4696;SDS011;2362;50.780;0.292;2023-10-13T02:46:33;48.00;;;10.50;;
4696;SDS011;2362;50.780;0.292;2023-10-13T02:49:05;55.90;;;9.60;;
4696;SDS011;2362;50.780;0.292;2023-10-13T02:51:38;40.70;;;9.85;;
4696;SDS011;2362;50.780;0.292;2023-10-13T02:54:07;48.28;;;10.65;;
4696;SDS011;2362;50.780;0.292;2023-10-13T02:56:36;56.28;;;11.25;;
4696;SDS011;2362;50.780;0.292;2023-10-13T02:59:02;56.30;;;9.98;;
4696;SDS011;2362;50.780;0.292;2023-10-13T03:01:35;61.17;;;10.90;;
4696;SDS011;2362;50.780;0.292;2023-10-13T03:04:01;49.95;;;11.65;;
4696;SDS011;2362;50.780;0.292;2023-10-13T03:06:38;63.85;;;11.75;;
4696;SDS011;2362;50.780;0.292;2023-10-13T03:09:07;59.60;;;11.95;;
4696;SDS011;2362;50.780;0.292;2023-10-13T03:11:42;72.15;;;12.30;;
4696;SDS011;2362;50.780;0.292;2023-10-13T03:14:18;72.07;;;12.73;;
4696;SDS011;2362;50.780;0.292;2023-10-13T03:16:58;67.65;;;11.82;;
4696;SDS011;2362;50.780;0.292;2023-10-13T03:19:33;73.00;;;12.98;;
4696;SDS011;2362;50.780;0.292;2023-10-13T03:22:02;63.85;;;13.48;;
4696;SDS011;2362;50.780;0.292;2023-10-13T03:24:40;78.43;;;14.13;;
4696;SDS011;2362;50.780;0.292;2023-10-13T03:27:10;68.00;;;13.77;;
4696;SDS011;2362;50.780;0.292;2023-10-13T03:29:41;69.28;;;12.57;;
4696;SDS011;2362;50.780;0.292;2023-10-13T03:32:14;78.15;;;14.05;;
4696;SDS011;2362;50.780;0.292;2023-10-13T03:34:41;66.10;;;13.68;;
4696;SDS011;2362;50.780;0.292;2023-10-13T03:37:26;62.03;;;12.57;;
4696;SDS011;2362;50.780;0.292;2023-10-13T03:40:03;68.20;;;13.80;;
4696;SDS011;2362;50.780;0.292;2023-10-13T03:42:47;76.47;;;14.07;;
4696;SDS011;2362;50.780;0.292;2023-10-13T03:45:30;59.25;;;13.57;;
4696;SDS011;2362;50.780;0.292;2023-10-13T03:48:03;72.53;;;15.38;;
4696;SDS011;2362;50.780;0.292;2023-10-13T03:50:40;74.00;;;15.20;;
4696;SDS011;2362;50.780;0.292;2023-10-13T03:53:32;73.75;;;14.13;;
4696;SDS011;2362;50.780;0.292;2023-10-13T03:56:02;75.38;;;14.13;;
4696;SDS011;2362;50.780;0.292;2023-10-13T03:58:51;64.00;;;12.90;;
4696;SDS011;2362;50.780;0.292;2023-10-13T04:01:19;68.25;;;13.10;;
4696;SDS011;2362;50.780;0.292;2023-10-13T04:03:56;54.10;;;13.02;;
4696;SDS011;2362;50.780;0.292;2023-10-13T04:06:27;51.65;;;11.20;;
4696;SDS011;2362;50.780;0.292;2023-10-13T04:11:58;56.25;;;12.10;;
4696;SDS011;2362;50.780;0.292;2023-10-13T04:14:31;54.17;;;11.35;;
4696;SDS011;2362;50.780;0.292;2023-10-13T04:17:17;53.67;;;12.38;;
4696;SDS011;2362;50.780;0.292;2023-10-13T04:19:51;48.53;;;10.85;;
4696;SDS011;2362;50.780;0.292;2023-10-13T04:22:39;58.38;;;11.40;;
4696;SDS011;2362;50.780;0.292;2023-10-13T04:25:14;46.67;;;10.82;;
4696;SDS011;2362;50.780;0.292;2023-10-13T04:28:11;44.47;;;9.52;;
4696;SDS011;2362;50.780;0.292;2023-10-13T04:30:41;47.17;;;8.65;;
4696;SDS011;2362;50.780;0.292;2023-10-13T04:33:19;43.75;;;8.85;;
4696;SDS011;2362;50.780;0.292;2023-10-13T04:36:13;63.83;;;11.95;;
4696;SDS011;2362;50.780;0.292;2023-10-13T04:38:40;52.58;;;11.13;;
4696;SDS011;2362;50.780;0.292;2023-10-13T04:41:39;53.17;;;10.55;;
4696;SDS011;2362;50.780;0.292;2023-10-13T04:44:11;54.10;;;10.68;;
4696;SDS011;2362;50.780;0.292;2023-10-13T04:46:58;35.08;;;8.55;;
4696;SDS011;2362;50.780;0.292;2023-10-13T04:49:24;44.17;;;9.52;;
4696;SDS011;2362;50.780;0.292;2023-10-13T04:54:33;50.58;;;11.38;;
4696;SDS011;2362;50.780;0.292;2023-10-13T04:57:11;44.33;;;8.70;;
4696;SDS011;2362;50.780;0.292;2023-10-13T04:59:56;46.30;;;8.60;;
4696;SDS011;2362;50.780;0.292;2023-10-13T05:02:37;41.58;;;9.23;;
4696;SDS011;2362;50.780;0.292;2023-10-13T05:05:20;56.63;;;9.82;;
4696;SDS011;2362;50.780;0.292;2023-10-13T05:08:04;45.33;;;9.68;;
4696;SDS011;2362;50.780;0.292;2023-10-13T05:10:48;42.70;;;10.90;;
4696;SDS011;2362;50.780;0.292;2023-10-13T05:13:33;36.15;;;7.35;;
4696;SDS011;2362;50.780;0.292;2023-10-13T05:16:17;41.42;;;8.35;;
4696;SDS011;2362;50.780;0.292;2023-10-13T05:19:01;38.03;;;8.00;;
4696;SDS011;2362;50.780;0.292;2023-10-13T05:21:45;47.38;;;8.60;;
4696;SDS011;2362;50.780;0.292;2023-10-13T05:24:30;32.08;;;8.75;;
4696;SDS011;2362;50.780;0.292;2023-10-13T05:27:14;45.90;;;8.32;;
4696;SDS011;2362;50.780;0.292;2023-10-13T05:29:58;57.58;;;8.68;;
4696;SDS011;2362;50.780;0.292;2023-10-13T05:32:42;43.80;;;8.82;;
4696;SDS011;2362;50.780;0.292;2023-10-13T05:35:27;41.28;;;8.93;;
4696;SDS011;2362;50.780;0.292;2023-10-13T05:38:11;59.45;;;8.63;;
4696;SDS011;2362;50.780;0.292;2023-10-13T05:40:56;42.83;;;8.55;;
4696;SDS011;2362;50.780;0.292;2023-10-13T05:43:44;35.60;;;8.63;;
4696;SDS011;2362;50.780;0.292;2023-10-13T05:46:29;60.65;;;11.57;;
4696;SDS011;2362;50.780;0.292;2023-10-13T05:49:04;48.55;;;8.60;;
4696;SDS011;2362;50.780;0.292;2023-10-13T05:51:31;41.08;;;8.60;;
4696;SDS011;2362;50.780;0.292;2023-10-13T05:53:58;42.30;;;9.40;;
4696;SDS011;2362;50.780;0.292;2023-10-13T05:56:40;42.63;;;8.48;;
4696;SDS011;2362;50.780;0.292;2023-10-13T05:59:27;47.00;;;7.68;;
4696;SDS011;2362;50.780;0.292;2023-10-13T06:02:14;43.20;;;9.25;;
4696;SDS011;2362;50.780;0.292;2023-10-13T06:07:46;52.85;;;8.82;;
4696;SDS011;2362;50.780;0.292;2023-10-13T06:10:31;35.55;;;8.90;;
4696;SDS011;2362;50.780;0.292;2023-10-13T06:13:15;43.08;;;9.20;;
4696;SDS011;2362;50.780;0.292;2023-10-13T06:15:59;57.10;;;10.25;;
4696;SDS011;2362;50.780;0.292;2023-10-13T06:18:43;44.25;;;8.20;;
4696;SDS011;2362;50.780;0.292;2023-10-13T06:21:28;59.20;;;8.82;;
4696;SDS011;2362;50.780;0.292;2023-10-13T06:24:12;35.85;;;8.00;;
4696;SDS011;2362;50.780;0.292;2023-10-13T06:26:56;39.90;;;8.85;;
4696;SDS011;2362;50.780;0.292;2023-10-13T06:29:40;43.90;;;7.88;;
4696;SDS011;2362;50.780;0.292;2023-10-13T06:32:06;50.17;;;8.30;;
4696;SDS011;2362;50.780;0.292;2023-10-13T06:34:38;47.08;;;8.10;;
4696;SDS011;2362;50.780;0.292;2023-10-13T06:37:18;45.40;;;9.18;;
4696;SDS011;2362;50.780;0.292;2023-10-13T06:39:51;40.38;;;8.27;;
4696;SDS011;2362;50.780;0.292;2023-10-13T06:42:22;51.20;;;9.02;;
4696;SDS011;2362;50.780;0.292;2023-10-13T06:45:00;41.42;;;7.95;;
4696;SDS011;2362;50.780;0.292;2023-10-13T06:47:36;43.97;;;8.35;;
4696;SDS011;2362;50.780;0.292;2023-10-13T06:50:08;52.65;;;8.25;;
4696;SDS011;2362;50.780;0.292;2023-10-13T06:52:49;37.92;;;8.52;;
4696;SDS011;2362;50.780;0.292;2023-10-13T06:55:16;56.65;;;8.77;;
4696;SDS011;2362;50.780;0.292;2023-10-13T06:57:48;42.65;;;8.35;;
4696;SDS011;2362;50.780;0.292;2023-10-13T07:00:16;36.25;;;8.25;;
4696;SDS011;2362;50.780;0.292;2023-10-13T07:02:53;32.63;;;7.85;;
4696;SDS011;2362;50.780;0.292;2023-10-13T07:05:18;57.67;;;10.02;;
4696;SDS011;2362;50.780;0.292;2023-10-13T07:07:45;54.20;;;8.45;;
4696;SDS011;2362;50.780;0.292;2023-10-13T07:10:13;42.53;;;8.00;;
4696;SDS011;2362;50.780;0.292;2023-10-13T07:12:39;41.30;;;7.90;;
4696;SDS011;2362;50.780;0.292;2023-10-13T07:15:08;46.42;;;9.00;;
4696;SDS011;2362;50.780;0.292;2023-10-13T07:17:47;37.22;;;8.40;;
4696;SDS011;2362;50.780;0.292;2023-10-13T07:20:19;48.03;;;8.35;;
4696;SDS011;2362;50.780;0.292;2023-10-13T07:22:54;41.92;;;8.95;;
4696;SDS011;2362;50.780;0.292;2023-10-13T07:25:23;47.80;;;9.32;;
4696;SDS011;2362;50.780;0.292;2023-10-13T07:27:52;46.83;;;8.45;;
4696;SDS011;2362;50.780;0.292;2023-10-13T07:30:19;44.60;;;8.63;;
4696;SDS011;2362;50.780;0.292;2023-10-13T07:32:51;34.10;;;8.20;;
4696;SDS011;2362;50.780;0.292;2023-10-13T07:35:19;49.65;;;9.73;;
4696;SDS011;2362;50.780;0.292;2023-10-13T07:37:45;44.40;;;7.95;;
4696;SDS011;2362;50.780;0.292;2023-10-13T07:40:17;32.92;;;8.20;;
4696;SDS011;2362;50.780;0.292;2023-10-13T07:42:55;39.45;;;8.75;;
4696;SDS011;2362;50.780;0.292;2023-10-13T07:45:35;48.22;;;9.35;;
4696;SDS011;2362;50.780;0.292;2023-10-13T07:48:09;48.40;;;7.78;;
4696;SDS011;2362;50.780;0.292;2023-10-13T07:50:44;53.92;;;8.85;;
4696;SDS011;2362;50.780;0.292;2023-10-13T07:53:11;52.92;;;9.95;;
4696;SDS011;2362;50.780;0.292;2023-10-13T07:56:00;51.67;;;9.10;;
4696;SDS011;2362;50.780;0.292;2023-10-13T07:58:30;59.33;;;10.40;;
4696;SDS011;2362;50.780;0.292;2023-10-13T08:00:59;53.78;;;9.68;;
4696;SDS011;2362;50.780;0.292;2023-10-13T08:03:35;49.78;;;9.85;;
4696;SDS011;2362;50.780;0.292;2023-10-13T08:06:14;51.63;;;8.82;;
4696;SDS011;2362;50.780;0.292;2023-10-13T08:08:40;55.95;;;9.45;;
4696;SDS011;2362;50.780;0.292;2023-10-13T08:11:09;58.28;;;9.65;;
4696;SDS011;2362;50.780;0.292;2023-10-13T08:13:57;49.92;;;9.52;;
4696;SDS011;2362;50.780;0.292;2023-10-13T08:16:42;43.13;;;10.50;;
4696;SDS011;2362;50.780;0.292;2023-10-13T08:19:17;55.00;;;9.70;;
4696;SDS011;2362;50.780;0.292;2023-10-13T08:21:45;44.22;;;8.35;;
4696;SDS011;2362;50.780;0.292;2023-10-13T08:24:17;54.90;;;10.77;;
4696;SDS011;2362;50.780;0.292;2023-10-13T08:26:52;58.17;;;10.05;;
4696;SDS011;2362;50.780;0.292;2023-10-13T08:29:36;46.15;;;8.90;;
4696;SDS011;2362;50.780;0.292;2023-10-13T08:32:21;46.72;;;10.10;;
4696;SDS011;2362;50.780;0.292;2023-10-13T08:34:51;49.25;;;9.82;;
4696;SDS011;2362;50.780;0.292;2023-10-13T08:37:19;59.28;;;10.43;;
4696;SDS011;2362;50.780;0.292;2023-10-13T08:39:50;54.17;;;10.32;;
4696;SDS011;2362;50.780;0.292;2023-10-13T08:42:35;53.92;;;9.38;;
4696;SDS011;2362;50.780;0.292;2023-10-13T08:45:11;40.10;;;9.18;;
4696;SDS011;2362;50.780;0.292;2023-10-13T08:47:59;53.78;;;9.77;;
4696;SDS011;2362;50.780;0.292;2023-10-13T08:53:21;46.22;;;9.20;;
4696;SDS011;2362;50.780;0.292;2023-10-13T08:56:01;43.55;;;9.32;;
4696;SDS011;2362;50.780;0.292;2023-10-13T08:58:48;47.45;;;10.05;;
4696;SDS011;2362;50.780;0.292;2023-10-13T09:01:31;42.45;;;8.35;;
4696;SDS011;2362;50.780;0.292;2023-10-13T09:04:24;50.55;;;9.50;;
4696;SDS011;2362;50.780;0.292;2023-10-13T09:09:33;43.65;;;9.50;;
4696;SDS011;2362;50.780;0.292;2023-10-13T09:12:24;64.43;;;10.32;;
4696;SDS011;2362;50.780;0.292;2023-10-13T09:15:00;56.97;;;10.05;;
4696;SDS011;2362;50.780;0.292;2023-10-13T09:17:42;49.88;;;10.65;;
4696;SDS011;2362;50.780;0.292;2023-10-13T09:20:31;42.65;;;9.95;;
4696;SDS011;2362;50.780;0.292;2023-10-13T09:23:19;54.42;;;10.23;;
4696;SDS011;2362;50.780;0.292;2023-10-13T09:26:05;57.17;;;11.65;;
4696;SDS011;2362;50.780;0.292;2023-10-13T09:28:34;52.55;;;9.88;;
4696;SDS011;2362;50.780;0.292;2023-10-13T09:31:02;57.85;;;11.88;;
4696;SDS011;2362;50.780;0.292;2023-10-13T09:33:32;56.38;;;10.60;;
4696;SDS011;2362;50.780;0.292;2023-10-13T09:36:01;57.83;;;10.10;;
4696;SDS011;2362;50.780;0.292;2023-10-13T09:38:32;50.50;;;10.55;;
4696;SDS011;2362;50.780;0.292;2023-10-13T09:40:58;40.53;;;11.63;;
4696;SDS011;2362;50.780;0.292;2023-10-13T09:43:42;47.80;;;10.00;;
4696;SDS011;2362;50.780;0.292;2023-10-13T09:46:09;40.47;;;11.55;;
4696;SDS011;2362;50.780;0.292;2023-10-13T09:48:46;45.90;;;10.65;;
4696;SDS011;2362;50.780;0.292;2023-10-13T09:51:13;55.83;;;11.07;;
4696;SDS011;2362;50.780;0.292;2023-10-13T09:53:47;51.83;;;11.23;;
4696;SDS011;2362;50.780;0.292;2023-10-13T09:56:23;58.22;;;12.63;;
4696;SDS011;2362;50.780;0.292;2023-10-13T09:58:54;53.20;;;11.82;;
4696;SDS011;2362;50.780;0.292;2023-10-13T10:01:28;47.08;;;10.43;;
4696;SDS011;2362;50.780;0.292;2023-10-13T10:04:08;71.82;;;11.88;;
4696;SDS011;2362;50.780;0.292;2023-10-13T10:15:12;53.97;;;10.15;;
4696;SDS011;2362;50.780;0.292;2023-10-13T10:18:17;52.20;;;10.70;;
4696;SDS011;2362;50.780;0.292;2023-10-13T10:20:47;61.72;;;11.13;;
4696;SDS011;2362;50.780;0.292;2023-10-13T10:23:26;58.22;;;10.98;;
4696;SDS011;2362;50.780;0.292;2023-10-13T10:26:10;58.00;;;12.75;;
4696;SDS011;2362;50.780;0.292;2023-10-13T10:28:41;61.72;;;10.85;;
4696;SDS011;2362;50.780;0.292;2023-10-13T10:31:08;61.78;;;12.25;;
4696;SDS011;2362;50.780;0.292;2023-10-13T10:33:37;51.30;;;10.35;;
4696;SDS011;2362;50.780;0.292;2023-10-13T10:36:04;47.72;;;10.38;;
4696;SDS011;2362;50.780;0.292;2023-10-13T10:38:30;53.70;;;11.10;;
4696;SDS011;2362;50.780;0.292;2023-10-13T10:41:04;58.28;;;10.05;;
4696;SDS011;2362;50.780;0.292;2023-10-13T10:46:18;48.70;;;8.05;;
4696;SDS011;2362;50.780;0.292;2023-10-13T10:48:50;49.47;;;9.73;;
4696;SDS011;2362;50.780;0.292;2023-10-13T10:51:21;57.78;;;10.52;;
4696;SDS011;2362;50.780;0.292;2023-10-13T10:53:50;65.88;;;11.45;;
4696;SDS011;2362;50.780;0.292;2023-10-13T10:56:21;63.97;;;10.20;;
4696;SDS011;2362;50.780;0.292;2023-10-13T10:58:50;70.25;;;12.20;;
4696;SDS011;2362;50.780;0.292;2023-10-13T11:01:23;63.13;;;9.48;;
4696;SDS011;2362;50.780;0.292;2023-10-13T11:03:57;56.90;;;10.45;;
4696;SDS011;2362;50.780;0.292;2023-10-13T11:09:14;72.15;;;13.23;;
4696;SDS011;2362;50.780;0.292;2023-10-13T11:11:52;69.50;;;11.02;;
4696;SDS011;2362;50.780;0.292;2023-10-13T11:14:22;62.90;;;10.35;;
4696;SDS011;2362;50.780;0.292;2023-10-13T11:16:48;67.70;;;12.02;;
4696;SDS011;2362;50.780;0.292;2023-10-13T11:19:38;57.95;;;11.38;;
4696;SDS011;2362;50.780;0.292;2023-10-13T11:22:14;70.03;;;13.05;;
4696;SDS011;2362;50.780;0.292;2023-10-13T11:25:06;67.72;;;11.07;;
4696;SDS011;2362;50.780;0.292;2023-10-13T11:27:42;76.18;;;13.93;;
4696;SDS011;2362;50.780;0.292;2023-10-13T11:30:11;70.18;;;10.57;;
4696;SDS011;2362;50.780;0.292;2023-10-13T11:32:44;72.03;;;11.50;;
4696;SDS011;2362;50.780;0.292;2023-10-13T11:35:12;69.30;;;12.23;;
4696;SDS011;2362;50.780;0.292;2023-10-13T11:37:50;74.85;;;13.02;;
4696;SDS011;2362;50.780;0.292;2023-10-13T11:40:28;76.85;;;12.02;;
4696;SDS011;2362;50.780;0.292;2023-10-13T11:43:08;70.00;;;11.90;;
4696;SDS011;2362;50.780;0.292;2023-10-13T11:45:41;73.32;;;11.85;;
4696;SDS011;2362;50.780;0.292;2023-10-13T11:48:21;62.75;;;11.43;;
4696;SDS011;2362;50.780;0.292;2023-10-13T11:51:10;63.03;;;12.00;;
4696;SDS011;2362;50.780;0.292;2023-10-13T11:53:49;66.40;;;10.90;;
4696;SDS011;2362;50.780;0.292;2023-10-13T11:56:18;80.85;;;11.75;;
4696;SDS011;2362;50.780;0.292;2023-10-13T11:58:47;66.85;;;11.63;;
4696;SDS011;2362;50.780;0.292;2023-10-13T12:01:13;77.38;;;12.60;;
4696;SDS011;2362;50.780;0.292;2023-10-13T12:03:43;68.68;;;11.77;;
4696;SDS011;2362;50.780;0.292;2023-10-13T12:06:28;67.88;;;11.05;;
4696;SDS011;2362;50.780;0.292;2023-10-13T12:09:01;60.25;;;10.40;;
4696;SDS011;2362;50.780;0.292;2023-10-13T12:11:49;62.85;;;11.85;;
4696;SDS011;2362;50.780;0.292;2023-10-13T12:14:16;73.70;;;12.02;;
4696;SDS011;2362;50.780;0.292;2023-10-13T12:16:47;68.57;;;11.65;;
4696;SDS011;2362;50.780;0.292;2023-10-13T12:19:19;62.28;;;10.88;;
4696;SDS011;2362;50.780;0.292;2023-10-13T12:21:53;65.35;;;11.88;;
4696;SDS011;2362;50.780;0.292;2023-10-13T12:24:22;63.10;;;10.02;;
4696;SDS011;2362;50.780;0.292;2023-10-13T12:27:05;66.55;;;11.30;;
4696;SDS011;2362;50.780;0.292;2023-10-13T12:29:53;67.05;;;10.93;;
4696;SDS011;2362;50.780;0.292;2023-10-13T12:32:21;66.05;;;10.55;;
4696;SDS011;2362;50.780;0.292;2023-10-13T12:34:49;63.85;;;10.68;;
4696;SDS011;2362;50.780;0.292;2023-10-13T12:37:27;62.45;;;10.80;;
4696;SDS011;2362;50.780;0.292;2023-10-13T12:40:03;64.43;;;9.77;;
4696;SDS011;2362;50.780;0.292;2023-10-13T12:42:48;62.33;;;9.95;;
4696;SDS011;2362;50.780;0.292;2023-10-13T12:45:33;74.15;;;10.70;;
4696;SDS011;2362;50.780;0.292;2023-10-13T12:48:21;75.95;;;10.73;;
4696;SDS011;2362;50.780;0.292;2023-10-13T12:51:05;57.60;;;9.88;;
4696;SDS011;2362;50.780;0.292;2023-10-13T12:54:05;54.60;;;8.93;;
4696;SDS011;2362;50.780;0.292;2023-10-13T12:56:38;78.57;;;11.75;;
4696;SDS011;2362;50.780;0.292;2023-10-13T12:59:06;60.50;;;9.25;;
4696;SDS011;2362;50.780;0.292;2023-10-13T13:01:38;67.63;;;10.43;;
4696;SDS011;2362;50.780;0.292;2023-10-13T13:04:07;73.30;;;12.25;;
4696;SDS011;2362;50.780;0.292;2023-10-13T13:06:37;78.32;;;12.07;;
4696;SDS011;2362;50.780;0.292;2023-10-13T13:09:05;67.85;;;9.82;;
4696;SDS011;2362;50.780;0.292;2023-10-13T13:11:34;62.60;;;10.43;;
4696;SDS011;2362;50.780;0.292;2023-10-13T13:14:07;80.30;;;10.05;;
4696;SDS011;2362;50.780;0.292;2023-10-13T13:16:33;72.40;;;13.63;;
4696;SDS011;2362;50.780;0.292;2023-10-13T13:19:00;78.25;;;11.73;;
4696;SDS011;2362;50.780;0.292;2023-10-13T13:21:35;65.38;;;11.50;;
4696;SDS011;2362;50.780;0.292;2023-10-13T13:24:01;55.78;;;9.98;;
4696;SDS011;2362;50.780;0.292;2023-10-13T13:26:29;82.57;;;11.43;;
4696;SDS011;2362;50.780;0.292;2023-10-13T13:28:56;77.10;;;12.13;;
4696;SDS011;2362;50.780;0.292;2023-10-13T13:31:22;77.03;;;13.95;;
4696;SDS011;2362;50.780;0.292;2023-10-13T13:33:51;74.35;;;11.82;;
4696;SDS011;2362;50.780;0.292;2023-10-13T13:36:17;62.58;;;10.48;;
4696;SDS011;2362;50.780;0.292;2023-10-13T13:38:44;84.20;;;13.82;;
4696;SDS011;2362;50.780;0.292;2023-10-13T13:41:15;77.10;;;12.00;;
4696;SDS011;2362;50.780;0.292;2023-10-13T13:43:43;78.03;;;12.80;;
4696;SDS011;2362;50.780;0.292;2023-10-13T13:46:19;82.90;;;11.27;;
4696;SDS011;2362;50.780;0.292;2023-10-13T13:48:49;71.28;;;11.27;;
4696;SDS011;2362;50.780;0.292;2023-10-13T13:51:29;65.75;;;10.68;;
4696;SDS011;2362;50.780;0.292;2023-10-13T13:53:56;56.67;;;9.90;;
4696;SDS011;2362;50.780;0.292;2023-10-13T13:56:23;67.53;;;10.13;;
4696;SDS011;2362;50.780;0.292;2023-10-13T13:58:54;60.58;;;10.57;;
4696;SDS011;2362;50.780;0.292;2023-10-13T14:01:23;65.35;;;11.48;;
4696;SDS011;2362;50.780;0.292;2023-10-13T14:03:52;56.05;;;9.27;;
4696;SDS011;2362;50.780;0.292;2023-10-13T14:06:22;63.38;;;10.93;;
4696;SDS011;2362;50.780;0.292;2023-10-13T14:08:53;61.40;;;12.18;;
4696;SDS011;2362;50.780;0.292;2023-10-13T14:11:30;59.08;;;10.27;;
4696;SDS011;2362;50.780;0.292;2023-10-13T14:14:06;55.92;;;8.82;;
4696;SDS011;2362;50.780;0.292;2023-10-13T14:16:39;58.70;;;10.38;;
4696;SDS011;2362;50.780;0.292;2023-10-13T14:19:09;50.15;;;10.52;;
4696;SDS011;2362;50.780;0.292;2023-10-13T14:21:36;56.97;;;9.48;;
4696;SDS011;2362;50.780;0.292;2023-10-13T14:24:02;61.65;;;9.65;;
4696;SDS011;2362;50.780;0.292;2023-10-13T14:26:37;52.22;;;8.32;;
4696;SDS011;2362;50.780;0.292;2023-10-13T14:29:04;61.97;;;10.00;;
4696;SDS011;2362;50.780;0.292;2023-10-13T14:31:33;59.97;;;10.60;;
4696;SDS011;2362;50.780;0.292;2023-10-13T14:34:02;66.85;;;9.35;;
4696;SDS011;2362;50.780;0.292;2023-10-13T14:36:28;61.33;;;8.30;;
4696;SDS011;2362;50.780;0.292;2023-10-13T14:38:57;55.72;;;9.45;;
4696;SDS011;2362;50.780;0.292;2023-10-13T14:41:22;52.55;;;8.20;;
4696;SDS011;2362;50.780;0.292;2023-10-13T14:43:48;50.58;;;8.15;;
4696;SDS011;2362;50.780;0.292;2023-10-13T14:46:17;57.35;;;8.85;;
4696;SDS011;2362;50.780;0.292;2023-10-13T14:48:48;47.00;;;8.45;;
4696;SDS011;2362;50.780;0.292;2023-10-13T14:51:16;55.38;;;7.93;;
4696;SDS011;2362;50.780;0.292;2023-10-13T14:53:43;49.63;;;8.25;;
4696;SDS011;2362;50.780;0.292;2023-10-13T14:56:13;57.22;;;9.18;;
4696;SDS011;2362;50.780;0.292;2023-10-13T14:58:40;47.15;;;8.35;;
4696;SDS011;2362;50.780;0.292;2023-10-13T15:01:14;61.75;;;8.68;;
4696;SDS011;2362;50.780;0.292;2023-10-13T15:03:41;49.17;;;8.00;;
4696;SDS011;2362;50.780;0.292;2023-10-13T15:06:15;61.90;;;9.23;;
4696;SDS011;2362;50.780;0.292;2023-10-13T15:08:53;46.05;;;7.43;;
4696;SDS011;2362;50.780;0.292;2023-10-13T15:11:21;47.40;;;7.40;;
4696;SDS011;2362;50.780;0.292;2023-10-13T15:13:52;41.75;;;8.43;;
4696;SDS011;2362;50.780;0.292;2023-10-13T15:16:22;60.42;;;8.77;;
4696;SDS011;2362;50.780;0.292;2023-10-13T15:18:50;58.97;;;7.82;;
4696;SDS011;2362;50.780;0.292;2023-10-13T15:21:23;51.85;;;7.28;;
4696;SDS011;2362;50.780;0.292;2023-10-13T15:24:10;63.22;;;9.93;;
4696;SDS011;2362;50.780;0.292;2023-10-13T15:26:39;49.03;;;6.38;;
4696;SDS011;2362;50.780;0.292;2023-10-13T15:29:10;40.97;;;7.60;;
4696;SDS011;2362;50.780;0.292;2023-10-13T15:31:40;43.53;;;6.85;;
4696;SDS011;2362;50.780;0.292;2023-10-13T15:34:11;52.30;;;7.28;;
4696;SDS011;2362;50.780;0.292;2023-10-13T15:36:40;48.15;;;7.60;;
4696;SDS011;2362;50.780;0.292;2023-10-13T15:39:10;48.20;;;7.13;;
4696;SDS011;2362;50.780;0.292;2023-10-13T15:41:36;47.65;;;7.15;;
4696;SDS011;2362;50.780;0.292;2023-10-13T15:44:10;43.97;;;5.95;;
4696;SDS011;2362;50.780;0.292;2023-10-13T15:46:38;49.88;;;7.30;;
4696;SDS011;2362;50.780;0.292;2023-10-13T15:49:04;68.05;;;9.93;;
4696;SDS011;2362;50.780;0.292;2023-10-13T15:51:34;48.25;;;7.60;;
4696;SDS011;2362;50.780;0.292;2023-10-13T15:54:02;58.28;;;8.20;;
4696;SDS011;2362;50.780;0.292;2023-10-13T15:56:28;56.72;;;8.40;;
4696;SDS011;2362;50.780;0.292;2023-10-13T15:59:00;40.35;;;6.00;;
4696;SDS011;2362;50.780;0.292;2023-10-13T16:01:26;53.42;;;9.18;;
4696;SDS011;2362;50.780;0.292;2023-10-13T16:03:53;51.72;;;7.43;;
4696;SDS011;2362;50.780;0.292;2023-10-13T16:06:19;50.05;;;8.35;;